In Rescue
 
Open Full Screen Window  High Contrast Mode
Wind Gusting 00 knots
03
April 03, 2020 12:21 AM EDT
Weather Information
Wind Direction
  280 °
Wind Speed
  03 kt (3 mph)
Wind Gust
  00 kt (0 mph)
Altimeter
30.06 in
Visibility
10 SM
Temperature
04° C
39° F
Dewpoint
02° C
36° F
Humidity
87%
1hr Rain Fall
00.00 in.
24hr Rain Fall
00.00 in.
Sky Condition
Clear
VFR

METAR KONZ 030421Z AUTO 28003KT 10SM CLR 04/02 A3006 RMK AO2 T00350017

FAA Disclaimer: The data displayed is for advisory purposes only and is not to be used for flight planning or operations.